Stevinson, California
Current Conditions -  °F | °C
As of 4:45 PM on Wednesday 22 Oct 2014 (Local Time) from KMER Reporting Station
Scattered Clouds Scattered Clouds  
Wind Chill: 75°   Ceiling: Unl
Heat Index: 75°   Visibility: 10mi
Dew Point: 37°   Wind: 7mph
Humidity: 25%   Direction: 360°N
Pressure: 30"   Gusts: NA
Location:  37.33°N, 120.85°W
Report Text: KMER 222345Z 36006KT 10SM FEW045 SCT120 24/03 A3000
Loading
Personal Weather Stations






























Interactive Weather Map
Tropical Storm Tracking
New forecast layout! Learn more

10-Day Weather Forecast

Advertisements
Track Severe Weather on mobile